createdAt,value
2023-04-17T00:00:13.215Z,27.73
2023-04-17T00:02:41.194Z,28.65
2023-04-17T00:05:10.149Z,30.08
2023-04-17T00:07:38.802Z,30.42
2023-04-17T00:10:09.035Z,26.75
2023-04-17T00:12:36.751Z,27.10
2023-04-17T00:15:06.603Z,25.88
2023-04-17T00:17:34.199Z,29.27
2023-04-17T00:20:01.867Z,24.48
2023-04-17T00:22:29.482Z,25.75
2023-04-17T00:24:58.133Z,24.52
2023-04-17T00:27:26.344Z,25.23
2023-04-17T00:29:53.913Z,26.48
2023-04-17T00:32:22.807Z,25.38
2023-04-17T00:34:51.492Z,25.85
2023-04-17T00:37:20.260Z,24.70
2023-04-17T00:39:47.829Z,25.20
2023-04-17T00:42:15.407Z,22.92
2023-04-17T00:44:43.001Z,25.70
2023-04-17T00:47:10.717Z,26.15
2023-04-17T00:49:39.678Z,23.52
2023-04-17T00:52:07.582Z,23.98
2023-04-17T00:54:36.421Z,25.75
2023-04-17T00:57:04.415Z,23.88
2023-04-17T00:59:33.397Z,28.48
2023-04-17T01:02:01.164Z,27.30
2023-04-17T01:04:28.830Z,28.50
2023-04-17T01:06:59.457Z,27.38
2023-04-17T01:09:27.717Z,28.13
2023-04-17T01:11:55.675Z,29.13
2023-04-17T01:14:23.254Z,26.88
2023-04-17T01:16:51.080Z,28.95
2023-04-17T01:19:19.507Z,27.35
2023-04-17T01:21:47.122Z,25.60
2023-04-17T01:24:16.221Z,25.65
2023-04-17T01:26:43.889Z,29.23
2023-04-17T01:29:12.073Z,27.35
2023-04-17T01:31:40.290Z,27.70
2023-04-17T01:34:07.887Z,29.48
2023-04-17T01:36:35.497Z,26.92
2023-04-17T01:39:04.116Z,27.13
2023-04-17T01:41:33.032Z,25.17
2023-04-17T01:44:00.700Z,26.00
2023-04-17T01:46:28.312Z,28.40
2023-04-17T01:48:56.173Z,25.05
2023-04-17T01:51:23.765Z,23.92
2023-04-17T01:53:51.460Z,26.25
2023-04-17T01:56:19.032Z,23.30
2023-04-17T01:58:48.015Z,25.08
2023-04-17T02:01:15.694Z,24.77
2023-04-17T02:03:43.428Z,25.25
2023-04-17T02:06:11.572Z,22.27
2023-04-17T02:08:39.252Z,23.73
2023-04-17T02:11:06.960Z,22.77
2023-04-17T02:13:35.838Z,21.88
2023-04-17T02:16:05.776Z,23.17
2023-04-17T02:18:35.283Z,23.13
2023-04-17T02:21:02.933Z,24.60
2023-04-17T02:23:30.510Z,23.30
2023-04-17T02:25:58.348Z,23.65
2023-04-17T02:28:26.168Z,25.02
2023-04-17T02:30:53.842Z,24.02
2023-04-17T02:33:23.100Z,24.58
2023-04-17T02:35:51.428Z,21.60
2023-04-17T02:38:23.901Z,23.80
2023-04-17T02:40:51.523Z,21.20
2023-04-17T02:43:19.463Z,23.58
2023-04-17T02:45:47.081Z,22.83
2023-04-17T02:48:14.883Z,20.35
2023-04-17T02:50:44.086Z,20.50
2023-04-17T02:53:16.754Z,21.63
2023-04-17T02:55:44.261Z,19.48
2023-04-17T02:58:13.297Z,19.70
2023-04-17T03:00:41.156Z,21.42
2023-04-17T03:03:13.800Z,20.17
2023-04-17T03:05:41.615Z,20.63
2023-04-17T03:08:11.700Z,18.70
2023-04-17T03:10:45.838Z,19.45
2023-04-17T03:13:13.589Z,21.23
2023-04-17T03:15:41.276Z,19.90
2023-04-17T03:18:08.860Z,17.92
2023-04-17T03:20:36.541Z,18.45
2023-04-17T03:23:04.146Z,18.35
2023-04-17T03:25:33.142Z,21.25
2023-04-17T03:28:01.660Z,24.15
2023-04-17T03:30:32.884Z,21.02
2023-04-17T03:33:04.992Z,20.55
2023-04-17T03:35:32.924Z,18.77
2023-04-17T03:38:02.964Z,18.40
2023-04-17T03:40:31.979Z,18.80
2023-04-17T03:43:03.031Z,19.35
2023-04-17T03:45:32.089Z,19.25
2023-04-17T03:47:59.829Z,18.38
2023-04-17T03:50:28.235Z,19.38
2023-04-17T03:52:57.703Z,19.15
2023-04-17T03:55:27.933Z,20.27
2023-04-17T03:57:56.106Z,21.38
2023-04-17T04:00:27.226Z,19.33
2023-04-17T04:03:00.573Z,22.90
2023-04-17T04:05:34.371Z,24.50
2023-04-17T04:08:04.298Z,19.83
2023-04-17T04:10:38.878Z,20.33
2023-04-17T04:13:06.840Z,17.20
2023-04-17T04:15:39.063Z,18.15
2023-04-17T04:18:07.250Z,20.38
2023-04-17T04:20:35.437Z,18.48
2023-04-17T04:23:16.575Z,18.17
2023-04-17T04:25:45.896Z,22.15
2023-04-17T04:28:23.695Z,21.67
2023-04-17T04:30:53.467Z,20.58
2023-04-17T04:33:23.135Z,22.17
2023-04-17T04:35:55.950Z,18.15
2023-04-17T04:38:29.807Z,19.38
2023-04-17T04:41:06.124Z,20.27
2023-04-17T04:43:34.726Z,17.85
2023-04-17T04:46:05.450Z,16.50
2023-04-17T04:48:37.052Z,17.70
2023-04-17T04:51:04.812Z,17.63
2023-04-17T04:53:35.869Z,18.10
2023-04-17T04:56:03.523Z,20.33
2023-04-17T04:58:32.453Z,17.73
2023-04-17T05:01:04.066Z,18.40
2023-04-17T05:03:38.977Z,19.58
2023-04-17T05:06:09.375Z,16.27
2023-04-17T05:08:44.969Z,20.35
2023-04-17T05:11:15.292Z,17.73
2023-04-17T05:13:43.373Z,19.10
2023-04-17T05:16:23.329Z,16.20
2023-04-17T05:18:52.599Z,19.63
2023-04-17T05:21:30.546Z,17.20
2023-04-17T05:23:58.894Z,16.58
2023-04-17T05:26:28.198Z,17.88
2023-04-17T05:28:55.982Z,17.08
2023-04-17T05:31:27.928Z,17.65
2023-04-17T05:33:58.074Z,16.48
2023-04-17T05:36:27.024Z,17.10
2023-04-17T05:38:58.505Z,17.60
2023-04-17T05:41:27.913Z,18.95
2023-04-17T05:43:55.497Z,15.35
2023-04-17T05:46:23.245Z,18.00
2023-04-17T05:48:51.144Z,19.05
2023-04-17T05:51:20.123Z,19.60
2023-04-17T05:53:49.049Z,18.48
2023-04-17T05:56:16.669Z,18.23
2023-04-17T05:58:44.532Z,18.13
2023-04-17T06:01:18.252Z,15.93
2023-04-17T06:03:46.118Z,17.02
2023-04-17T06:06:20.890Z,21.23
2023-04-17T06:08:48.784Z,17.92
2023-04-17T06:11:17.124Z,16.83
2023-04-17T06:13:45.578Z,16.25
2023-04-17T06:16:13.366Z,15.18
2023-04-17T06:18:41.458Z,16.63
2023-04-17T06:21:09.375Z,14.60
2023-04-17T06:23:38.692Z,18.55
2023-04-17T06:26:06.647Z,16.20
2023-04-17T06:28:35.254Z,17.13
2023-04-17T06:31:03.385Z,14.50
2023-04-17T06:33:31.035Z,14.77
2023-04-17T06:35:58.587Z,18.52
2023-04-17T06:38:50.464Z,15.43
2023-04-17T06:41:21.145Z,15.93
2023-04-17T06:43:48.723Z,15.68
2023-04-17T06:46:16.460Z,19.42
2023-04-17T06:48:44.035Z,18.02
2023-04-17T06:51:11.564Z,15.23
2023-04-17T06:53:39.134Z,17.20
2023-04-17T06:56:08.282Z,16.02
2023-04-17T06:58:42.275Z,19.58
2023-04-17T07:01:09.829Z,15.20
2023-04-17T07:03:37.851Z,14.55
2023-04-17T07:06:05.818Z,14.90
2023-04-17T07:08:33.624Z,14.27
2023-04-17T07:11:03.339Z,14.93
2023-04-17T07:13:33.288Z,15.13
2023-04-17T07:16:01.256Z,14.07
2023-04-17T07:18:30.175Z,14.52
2023-04-17T07:20:57.857Z,12.80
2023-04-17T07:23:25.703Z,14.38
2023-04-17T07:25:53.312Z,13.27
2023-04-17T07:28:21.243Z,14.18
2023-04-17T07:30:50.120Z,14.23
2023-04-17T07:33:17.669Z,15.57
2023-04-17T07:35:45.232Z,15.23
2023-04-17T07:38:12.890Z,12.80
2023-04-17T07:40:41.149Z,13.07
2023-04-17T07:43:08.738Z,12.90
2023-04-17T07:45:38.097Z,12.55
2023-04-17T07:48:08.269Z,12.73
2023-04-17T07:50:35.930Z,15.00
2023-04-17T07:53:03.559Z,13.73
2023-04-17T07:55:31.110Z,11.77
2023-04-17T07:58:01.532Z,14.52
2023-04-17T08:00:29.326Z,12.63
2023-04-17T08:02:58.149Z,14.80
2023-04-17T08:05:27.338Z,12.52
2023-04-17T08:07:54.971Z,14.73
2023-04-17T08:10:22.540Z,12.80
2023-04-17T08:12:50.102Z,11.98
2023-04-17T08:15:17.674Z,14.98
2023-04-17T08:17:45.313Z,12.45
2023-04-17T08:20:13.557Z,13.23
2023-04-17T08:22:43.693Z,13.93
2023-04-17T08:25:11.968Z,11.82
2023-04-17T08:27:41.335Z,11.00
2023-04-17T08:30:13.297Z,10.15
2023-04-17T08:32:43.576Z,11.48
2023-04-17T08:35:12.357Z,9.77
2023-04-17T08:37:39.984Z,10.27
2023-04-17T08:40:12.098Z,11.30
2023-04-17T08:42:41.455Z,10.02
2023-04-17T08:45:10.888Z,11.00
2023-04-17T08:47:40.200Z,7.38
2023-04-17T08:50:09.912Z,9.27
2023-04-17T08:52:41.169Z,8.98
2023-04-17T08:55:11.541Z,10.35
2023-04-17T08:57:54.919Z,7.97
2023-04-17T09:00:29.402Z,8.07
2023-04-17T09:02:59.375Z,10.05
2023-04-17T09:05:30.126Z,9.30
2023-04-17T09:08:08.959Z,8.15
2023-04-17T09:10:39.538Z,7.43
2023-04-17T09:13:08.459Z,7.78
2023-04-17T09:15:37.502Z,9.40
2023-04-17T09:18:05.244Z,7.72
2023-04-17T09:20:32.901Z,8.60
2023-04-17T09:23:03.224Z,7.25
2023-04-17T09:25:31.162Z,7.55
2023-04-17T09:28:12.624Z,12.13
2023-04-17T09:30:40.996Z,10.23
2023-04-17T09:33:09.816Z,10.43
2023-04-17T09:35:40.203Z,6.18
2023-04-17T09:38:08.320Z,31.63
2023-04-17T09:40:41.020Z,8.32
2023-04-17T09:43:11.657Z,7.25
2023-04-17T09:45:42.718Z,7.60
2023-04-17T09:48:11.934Z,10.73
2023-04-17T09:50:40.041Z,10.38
2023-04-17T09:53:08.911Z,9.75
2023-04-17T09:55:37.579Z,9.57
2023-04-17T09:58:07.219Z,8.75
2023-04-17T10:00:37.739Z,10.07
2023-04-17T10:03:05.866Z,9.68
2023-04-17T10:05:33.682Z,9.77
2023-04-17T10:08:01.659Z,8.25
2023-04-17T10:10:33.646Z,13.90
2023-04-17T10:13:03.596Z,10.93
2023-04-17T10:15:31.967Z,7.10
2023-04-17T10:18:22.722Z,9.23
2023-04-17T10:20:50.879Z,6.68
2023-04-17T10:23:34.872Z,6.82
2023-04-17T10:26:45.673Z,7.82
2023-04-17T10:29:13.694Z,7.68
2023-04-17T10:32:15.606Z,6.40
2023-04-17T10:34:44.675Z,7.88
2023-04-17T10:37:15.160Z,6.95
2023-04-17T10:39:54.744Z,7.53
2023-04-17T10:42:23.687Z,6.00
2023-04-17T10:44:53.057Z,6.60
2023-04-17T10:47:22.034Z,6.25
2023-04-17T10:49:55.088Z,5.75
2023-04-17T10:52:39.960Z,7.82
2023-04-17T10:55:09.779Z,6.55
2023-04-17T10:57:54.411Z,5.47
2023-04-17T11:00:29.289Z,6.07
2023-04-17T11:02:57.276Z,5.70
2023-04-17T11:05:26.603Z,5.63
2023-04-17T11:07:54.238Z,5.85
2023-04-17T11:10:22.906Z,5.38
2023-04-17T11:12:53.181Z,4.72
2023-04-17T11:15:27.476Z,5.18
2023-04-17T11:17:55.232Z,5.15
2023-04-17T11:20:24.507Z,5.60
2023-04-17T11:22:53.683Z,6.38
2023-04-17T11:25:23.112Z,5.05
2023-04-17T11:27:56.311Z,5.95
2023-04-17T11:30:31.830Z,5.68
2023-04-17T11:33:00.883Z,5.85
2023-04-17T11:35:29.939Z,5.45
2023-04-17T11:38:11.340Z,5.50
2023-04-17T11:40:46.879Z,5.30
2023-04-17T11:43:14.603Z,5.50
2023-04-17T11:45:43.761Z,3.85
2023-04-17T11:48:12.759Z,5.80
2023-04-17T11:50:42.131Z,4.65
2023-04-17T11:53:14.455Z,3.38
2023-04-17T11:55:42.070Z,3.45
2023-04-17T11:58:11.274Z,4.38
2023-04-17T12:00:40.603Z,3.00
2023-04-17T12:03:34.562Z,3.53
2023-04-17T12:06:04.240Z,3.58
2023-04-17T12:08:43.435Z,4.55
2023-04-17T12:11:18.769Z,3.42
2023-04-17T12:13:46.320Z,3.58
2023-04-17T12:16:13.951Z,3.00
2023-04-17T12:18:41.560Z,2.95
2023-04-17T12:21:09.141Z,3.28
2023-04-17T12:23:38.004Z,2.67
2023-04-17T12:26:05.687Z,3.05
2023-04-17T12:28:33.326Z,3.03
2023-04-17T12:31:01.057Z,3.42
2023-04-17T12:33:28.705Z,2.88
2023-04-17T12:35:56.317Z,2.10
2023-04-17T12:38:24.234Z,2.60
2023-04-17T12:40:53.159Z,3.25
2023-04-17T12:43:20.764Z,2.42
2023-04-17T12:45:48.418Z,2.80
2023-04-17T12:48:16.552Z,2.88
2023-04-17T12:50:44.295Z,3.17
2023-04-17T12:53:13.251Z,3.40
2023-04-17T12:55:41.826Z,2.50
2023-04-17T12:58:11.439Z,3.63
2023-04-17T13:00:40.386Z,3.47
2023-04-17T13:03:08.225Z,3.53
2023-04-17T13:05:36.569Z,3.20
2023-04-17T13:08:04.235Z,2.55
2023-04-17T13:10:31.836Z,2.15
2023-04-17T13:12:59.535Z,3.15
2023-04-17T13:15:28.636Z,2.17
2023-04-17T13:17:56.875Z,3.13
2023-04-17T13:20:24.665Z,2.97
2023-04-17T13:22:52.259Z,3.42
2023-04-17T13:25:19.900Z,2.83
2023-04-17T13:27:47.545Z,6.20
2023-04-17T13:30:15.728Z,3.90
2023-04-17T13:32:44.848Z,3.72
2023-04-17T13:35:13.369Z,2.65
2023-04-17T13:37:41.148Z,3.03
2023-04-17T13:40:10.642Z,3.17
2023-04-17T13:42:38.536Z,2.60
2023-04-17T13:45:07.315Z,3.72
2023-04-17T13:47:35.014Z,3.10
2023-04-17T13:50:04.637Z,3.83
2023-04-17T13:52:32.218Z,3.38
2023-04-17T13:54:59.853Z,5.20
2023-04-17T13:57:27.722Z,2.13
2023-04-17T13:59:55.478Z,2.90
2023-04-17T14:02:23.217Z,2.35
2023-04-17T14:04:51.076Z,3.38
2023-04-17T14:07:20.254Z,4.53
2023-04-17T14:09:47.818Z,3.85
2023-04-17T14:12:19.686Z,4.80
2023-04-17T14:14:47.282Z,2.92
2023-04-17T14:17:14.916Z,2.47
2023-04-17T14:19:42.469Z,2.30
2023-04-17T14:22:10.187Z,2.92
2023-04-17T14:24:39.091Z,4.82
2023-04-17T14:27:06.635Z,3.10
2023-04-17T14:29:34.174Z,3.58
2023-04-17T14:32:01.708Z,3.08
2023-04-17T14:34:29.495Z,2.80
2023-04-17T14:36:58.308Z,2.63
2023-04-17T14:39:25.966Z,2.58
2023-04-17T14:41:55.016Z,3.33
2023-04-17T14:44:22.573Z,6.18
2023-04-17T14:46:50.470Z,4.35
2023-04-17T14:49:20.498Z,7.18
2023-04-17T14:51:48.108Z,7.20
2023-04-17T14:54:15.854Z,4.70
2023-04-17T14:56:43.447Z,4.72
2023-04-17T14:59:12.508Z,13.80
2023-04-17T15:01:40.236Z,13.38
2023-04-17T15:04:07.918Z,9.98
2023-04-17T15:06:36.234Z,8.23
2023-04-17T15:09:04.061Z,15.40
2023-04-17T15:11:31.624Z,6.95
2023-04-17T15:13:59.173Z,7.57
2023-04-17T15:16:28.224Z,3.95
2023-04-17T15:18:55.851Z,5.90
2023-04-17T15:21:23.392Z,34.38
2023-04-17T15:23:51.166Z,31.15
2023-04-17T15:26:19.922Z,4.38
2023-04-17T15:28:47.806Z,4.85
2023-04-17T15:31:15.606Z,3.13
2023-04-17T15:33:45.899Z,3.25
2023-04-17T15:36:13.505Z,3.92
2023-04-17T15:38:41.075Z,3.03
2023-04-17T15:41:10.163Z,2.30
2023-04-17T15:43:38.821Z,5.18
2023-04-17T15:46:07.315Z,2.42
2023-04-17T15:48:34.979Z,2.65
2023-04-17T15:51:04.905Z,2.30
2023-04-17T15:53:33.150Z,3.03
2023-04-17T15:56:00.778Z,2.63
2023-04-17T15:58:28.412Z,2.40
2023-04-17T16:00:56.071Z,2.65
2023-04-17T16:03:23.825Z,2.83
2023-04-17T16:05:54.106Z,2.90
2023-04-17T16:08:23.104Z,2.03
2023-04-17T16:10:50.650Z,2.05
2023-04-17T16:13:18.486Z,2.17
2023-04-17T16:15:46.346Z,2.83
2023-04-17T16:18:13.965Z,2.50
2023-04-17T16:20:41.583Z,2.60
2023-04-17T16:23:09.237Z,2.22
2023-04-17T16:25:38.299Z,2.53
2023-04-17T16:28:05.895Z,2.83
2023-04-17T16:30:33.553Z,2.85
2023-04-17T16:33:01.137Z,4.05
2023-04-17T16:35:30.019Z,2.75
2023-04-17T16:37:57.646Z,2.80
2023-04-17T16:40:26.508Z,2.97
2023-04-17T16:42:55.473Z,2.72
2023-04-17T16:45:23.105Z,3.45
2023-04-17T16:47:50.892Z,3.10
2023-04-17T16:50:18.558Z,3.72
2023-04-17T16:52:46.338Z,3.05
2023-04-17T16:55:14.304Z,4.78
2023-04-17T16:57:43.611Z,4.25
2023-04-17T17:00:13.786Z,4.63
2023-04-17T17:02:41.577Z,3.90
2023-04-17T17:05:10.274Z,3.60
2023-04-17T17:07:37.861Z,5.55
2023-04-17T17:10:06.790Z,3.90
2023-04-17T17:12:34.401Z,3.67
2023-04-17T17:15:03.470Z,3.60
2023-04-17T17:17:32.851Z,3.88
2023-04-17T17:20:00.953Z,5.75
2023-04-17T17:22:28.534Z,5.80
2023-04-17T17:24:56.167Z,4.55
2023-04-17T17:27:23.839Z,4.70
2023-04-17T17:29:51.421Z,9.07
2023-04-17T17:32:19.216Z,6.90
2023-04-17T17:34:48.382Z,4.60
2023-04-17T17:37:16.059Z,5.53
2023-04-17T17:39:43.716Z,4.07
2023-04-17T17:42:11.374Z,3.72
2023-04-17T17:44:39.013Z,4.25
2023-04-17T17:47:08.035Z,3.63
2023-04-17T17:49:35.861Z,4.22
2023-04-17T17:52:06.194Z,3.25
2023-04-17T17:54:36.596Z,3.50
2023-04-17T17:57:04.617Z,4.05
2023-04-17T17:59:32.172Z,2.30
2023-04-17T18:02:02.002Z,2.25
2023-04-17T18:04:30.104Z,1.52
2023-04-17T18:06:57.712Z,1.27
2023-04-17T18:09:26.647Z,1.35
2023-04-17T18:16:00.654Z,1.58
2023-04-17T18:18:28.255Z,1.55
2023-04-17T18:20:55.775Z,2.78
2023-04-17T18:23:23.638Z,1.65
2023-04-17T18:25:58.831Z,1.50
2023-04-17T18:28:26.481Z,0.75
2023-04-17T18:30:54.317Z,1.10
2023-04-17T18:33:21.971Z,1.25
2023-04-17T18:35:50.182Z,0.95
2023-04-17T18:38:17.790Z,1.23
2023-04-17T18:40:45.420Z,3.55
2023-04-17T18:43:14.407Z,1.50
2023-04-17T18:45:42.062Z,1.27
2023-04-17T18:48:09.802Z,1.50
2023-04-17T18:50:38.359Z,1.00
2023-04-17T18:53:05.918Z,1.17
2023-04-17T18:55:35.030Z,1.92
2023-04-17T18:58:02.656Z,1.58
2023-04-17T19:00:31.737Z,1.77
2023-04-17T19:02:59.662Z,1.50
2023-04-17T19:05:27.295Z,1.90
2023-04-17T19:07:54.956Z,2.40
2023-04-17T19:10:22.994Z,2.80
2023-04-17T19:12:50.645Z,1.42
2023-04-17T19:15:18.635Z,1.40
2023-04-17T19:17:47.542Z,2.08
2023-04-17T19:20:16.525Z,1.70
2023-04-17T19:22:44.078Z,1.67
2023-04-17T19:25:11.900Z,1.48
2023-04-17T19:27:39.430Z,1.52
2023-04-17T19:30:09.530Z,2.95
2023-04-17T19:32:37.183Z,2.53
2023-04-17T19:35:07.535Z,4.15
2023-04-17T19:37:35.331Z,6.25
2023-04-17T19:40:08.648Z,4.95
2023-04-17T19:42:42.187Z,5.80
2023-04-17T19:45:10.694Z,3.13
2023-04-17T19:47:40.759Z,2.70
2023-04-17T19:50:12.129Z,3.15
2023-04-17T19:52:40.009Z,2.55
2023-04-17T19:55:09.194Z,2.95
2023-04-17T19:57:36.931Z,3.53
2023-04-17T20:00:05.501Z,4.35
2023-04-17T20:02:40.140Z,2.72
2023-04-17T20:05:10.351Z,3.33
2023-04-17T20:07:37.948Z,3.92
2023-04-17T20:10:06.339Z,3.85
2023-04-17T20:12:34.289Z,2.83
2023-04-17T20:15:01.920Z,4.22
2023-04-17T20:17:29.854Z,4.10
2023-04-17T20:19:57.773Z,3.40
2023-04-17T20:22:27.568Z,6.22
2023-04-17T20:24:55.113Z,6.25
2023-04-17T20:27:22.940Z,6.60
2023-04-17T20:29:50.780Z,5.60
2023-04-17T20:32:20.225Z,3.53
2023-04-17T20:34:47.834Z,3.63
2023-04-17T20:37:15.809Z,5.82
2023-04-17T20:39:44.741Z,4.32
2023-04-17T20:42:12.265Z,4.93
2023-04-17T20:44:39.893Z,3.55
2023-04-17T20:47:07.488Z,3.80
2023-04-17T20:49:35.151Z,4.60
2023-04-17T20:52:03.064Z,4.18
2023-04-17T20:54:30.853Z,4.28
2023-04-17T20:56:59.733Z,5.45
2023-04-17T20:59:27.282Z,7.22
2023-04-17T21:01:54.884Z,5.00
2023-04-17T21:04:22.711Z,4.95
2023-04-17T21:06:50.394Z,5.50
2023-04-17T21:09:18.196Z,4.93
2023-04-17T21:11:45.832Z,3.88
2023-04-17T21:14:15.292Z,5.10
2023-04-17T21:16:44.334Z,3.70
2023-04-17T21:19:12.200Z,6.40
2023-04-17T21:21:39.844Z,5.13
2023-04-17T21:24:07.919Z,5.28
2023-04-17T21:26:36.061Z,4.28
2023-04-17T21:29:03.698Z,7.97
2023-04-17T21:31:32.777Z,7.32
2023-04-17T21:34:01.187Z,5.07
2023-04-17T21:36:29.112Z,5.18
2023-04-17T21:38:56.671Z,4.75
2023-04-17T21:41:24.251Z,5.57
2023-04-17T21:43:51.780Z,4.93
2023-04-17T21:46:19.350Z,4.60
2023-04-17T21:48:48.298Z,6.93
2023-04-17T21:51:16.002Z,4.50
2023-04-17T21:53:44.626Z,4.68
2023-04-17T21:56:12.221Z,4.57
2023-04-17T21:58:39.772Z,5.03
2023-04-17T22:01:07.847Z,5.10
2023-04-17T22:03:36.093Z,4.88
2023-04-17T22:06:06.007Z,5.65
2023-04-17T22:08:33.947Z,7.88
2023-04-17T22:11:01.491Z,5.78
2023-04-17T22:13:29.155Z,6.93
2023-04-17T22:15:58.419Z,7.25
2023-04-17T22:18:26.641Z,6.13
2023-04-17T22:20:54.194Z,6.20
2023-04-17T22:23:23.093Z,5.28
2023-04-17T22:25:50.644Z,8.23
2023-04-17T22:28:18.304Z,6.72
2023-04-17T22:30:45.888Z,6.68
2023-04-17T22:33:13.396Z,6.88
2023-04-17T22:35:40.939Z,6.18
2023-04-17T22:38:08.515Z,6.57
2023-04-17T22:40:37.572Z,7.07
2023-04-17T22:43:05.702Z,7.07
2023-04-17T22:45:33.449Z,7.15
2023-04-17T22:48:01.034Z,8.63
2023-04-17T22:50:30.497Z,6.13
2023-04-17T22:52:58.121Z,8.10
2023-04-17T22:55:25.646Z,6.30
2023-04-17T22:57:54.617Z,7.70
2023-04-17T23:00:22.250Z,6.47
2023-04-17T23:02:49.863Z,5.95
2023-04-17T23:05:17.728Z,7.85
2023-04-17T23:07:45.466Z,6.40
2023-04-17T23:10:13.046Z,7.72
2023-04-17T23:12:40.651Z,5.95
2023-04-17T23:15:11.116Z,6.47
2023-04-17T23:17:38.753Z,7.15
2023-04-17T23:20:07.632Z,6.55
2023-04-17T23:22:35.288Z,6.72
2023-04-17T23:25:02.864Z,6.90
2023-04-17T23:27:31.457Z,6.68
2023-04-17T23:29:59.904Z,8.48
2023-04-17T23:32:28.909Z,7.68
2023-04-17T23:34:56.468Z,7.22
2023-04-17T23:37:24.047Z,7.80
2023-04-17T23:39:51.673Z,7.32
2023-04-17T23:42:19.177Z,8.23
2023-04-17T23:44:46.696Z,8.40
2023-04-17T23:47:14.416Z,6.47
2023-04-17T23:49:43.306Z,9.13
2023-04-17T23:52:10.982Z,11.15
2023-04-17T23:54:38.611Z,16.67
2023-04-17T23:57:06.185Z,25.67
2023-04-17T23:59:33.869Z,20.23
